createdAt,value
2018-07-27T00:01:14.432Z,22.20
2018-07-27T00:03:42.255Z,21.90
2018-07-27T00:06:10.056Z,22.00
2018-07-27T00:08:37.904Z,21.70
2018-07-27T00:11:05.687Z,21.70
2018-07-27T00:13:33.589Z,21.90
2018-07-27T00:16:01.824Z,21.90
2018-07-27T00:18:29.627Z,21.70
2018-07-27T00:20:57.519Z,21.60
2018-07-27T00:25:53.179Z,21.50
2018-07-27T00:28:20.955Z,21.50
2018-07-27T00:30:48.675Z,21.40
2018-07-27T00:33:16.455Z,21.40
2018-07-27T00:35:44.188Z,21.40
2018-07-27T00:38:12.116Z,21.50
2018-07-27T00:40:39.975Z,21.60
2018-07-27T00:43:07.824Z,21.50
2018-07-27T00:45:35.690Z,21.60
2018-07-27T00:48:03.607Z,21.60
2018-07-27T00:50:31.328Z,21.50
2018-07-27T00:52:59.037Z,21.50
2018-07-27T00:55:26.836Z,21.40
2018-07-27T00:57:54.666Z,21.40
2018-07-27T01:00:22.467Z,21.40
2018-07-27T01:07:52.571Z,21.20
2018-07-27T01:10:20.417Z,21.20
2018-07-27T01:12:48.234Z,21.40
2018-07-27T01:15:16.025Z,21.40
2018-07-27T01:17:43.840Z,21.30
2018-07-27T01:20:11.702Z,21.30
2018-07-27T01:22:39.540Z,21.30
2018-07-27T01:25:07.301Z,21.40
2018-07-27T01:30:03.648Z,21.40
2018-07-27T01:32:31.459Z,21.50
2018-07-27T01:34:59.216Z,21.30
2018-07-27T01:37:26.963Z,21.30
2018-07-27T01:39:54.712Z,21.30
2018-07-27T01:42:22.521Z,21.10
2018-07-27T01:44:50.383Z,21.10
2018-07-27T01:47:18.207Z,21.10
2018-07-27T01:49:45.971Z,21.00
2018-07-27T01:52:13.751Z,20.90
2018-07-27T01:54:41.500Z,21.20
2018-07-27T01:57:09.243Z,21.10
2018-07-27T02:02:05.080Z,21.00
2018-07-27T02:04:32.911Z,21.00
2018-07-27T02:07:00.721Z,21.00
2018-07-27T02:09:28.552Z,20.90
2018-07-27T02:11:56.382Z,20.80
2018-07-27T02:14:24.159Z,20.80
2018-07-27T02:16:52.016Z,20.60
2018-07-27T02:19:19.820Z,20.60
2018-07-27T02:21:47.707Z,20.70
2018-07-27T02:24:15.532Z,20.60
2018-07-27T02:29:11.119Z,20.40
2018-07-27T02:31:38.936Z,20.30
2018-07-27T02:34:06.719Z,20.50
2018-07-27T02:36:34.523Z,20.40
2018-07-27T02:39:02.372Z,20.40
2018-07-27T02:41:30.197Z,20.50
2018-07-27T02:43:58.062Z,20.50
2018-07-27T02:46:25.866Z,20.70
2018-07-27T02:48:53.652Z,20.70
2018-07-27T02:51:21.521Z,20.60
2018-07-27T02:53:49.345Z,20.60
2018-07-27T02:56:17.203Z,20.70
2018-07-27T02:58:44.995Z,20.50
2018-07-27T03:01:12.821Z,20.40
2018-07-27T03:03:40.568Z,20.30
2018-07-27T03:06:08.288Z,20.50
2018-07-27T03:08:36.084Z,20.30
2018-07-27T03:11:03.913Z,20.40
2018-07-27T03:13:31.714Z,20.20
2018-07-27T03:15:59.644Z,20.20
2018-07-27T03:18:27.459Z,20.10
2018-07-27T03:20:55.383Z,20.10
2018-07-27T03:23:23.183Z,20.00
2018-07-27T03:25:50.959Z,20.10
2018-07-27T03:28:18.785Z,19.90
2018-07-27T03:30:46.611Z,20.10
2018-07-27T03:33:14.402Z,20.10
2018-07-27T03:35:42.187Z,20.10
2018-07-27T03:38:09.962Z,20.30
2018-07-27T03:40:37.755Z,20.40
2018-07-27T03:43:05.515Z,20.50
2018-07-27T03:45:33.367Z,20.20
2018-07-27T03:48:05.703Z,20.20
2018-07-27T03:50:33.452Z,20.00
2018-07-27T03:53:01.231Z,20.10
2018-07-27T03:55:28.963Z,20.10
2018-07-27T03:57:56.760Z,20.10
2018-07-27T04:00:24.602Z,20.00
2018-07-27T04:02:52.356Z,19.80
2018-07-27T04:05:20.124Z,19.70
2018-07-27T04:07:47.947Z,19.80
2018-07-27T04:10:15.767Z,19.90
2018-07-27T04:12:43.603Z,20.00
2018-07-27T04:15:11.380Z,19.90
2018-07-27T04:17:39.144Z,19.80
2018-07-27T04:20:07.120Z,19.90
2018-07-27T04:22:34.919Z,20.00
2018-07-27T04:27:30.519Z,20.00
2018-07-27T04:29:58.378Z,20.10
2018-07-27T04:32:26.111Z,20.20
2018-07-27T04:34:53.944Z,20.20
2018-07-27T04:37:21.725Z,20.20
2018-07-27T04:39:49.440Z,20.30
2018-07-27T04:42:17.240Z,20.30
2018-07-27T04:44:45.070Z,20.40
2018-07-27T04:47:12.857Z,20.40
2018-07-27T04:49:40.867Z,20.50
2018-07-27T04:52:08.668Z,20.50
2018-07-27T04:54:36.455Z,20.60
2018-07-27T04:57:04.415Z,20.70
2018-07-27T04:59:32.207Z,20.80
2018-07-27T05:01:59.971Z,20.80
2018-07-27T05:04:27.743Z,20.80
2018-07-27T05:06:55.591Z,20.80
2018-07-27T05:09:23.808Z,20.90
2018-07-27T05:11:51.964Z,21.20
2018-07-27T05:14:19.691Z,21.30
2018-07-27T05:16:47.519Z,21.40
2018-07-27T05:19:15.323Z,21.60
2018-07-27T05:21:43.197Z,21.80
2018-07-27T05:24:11.032Z,22.10
2018-07-27T05:26:38.852Z,22.40
2018-07-27T05:29:06.675Z,22.90
2018-07-27T05:31:34.431Z,23.70
2018-07-27T05:34:02.294Z,24.30
2018-07-27T05:36:30.095Z,24.90
2018-07-27T05:38:58.322Z,25.50
2018-07-27T05:41:26.174Z,25.90
2018-07-27T05:43:53.991Z,25.50
2018-07-27T05:46:21.843Z,25.00
2018-07-27T05:48:49.684Z,25.00
2018-07-27T05:51:17.473Z,25.00
2018-07-27T05:53:45.306Z,25.30
2018-07-27T05:56:13.119Z,25.60
2018-07-27T05:58:40.975Z,25.80
2018-07-27T06:01:09.294Z,25.70
2018-07-27T06:03:37.119Z,26.20
2018-07-27T06:06:05.240Z,26.10
2018-07-27T06:08:33.692Z,26.20
2018-07-27T06:11:01.555Z,26.20
2018-07-27T06:13:29.392Z,26.20
2018-07-27T06:15:57.375Z,26.50
2018-07-27T06:18:25.183Z,26.20
2018-07-27T06:20:53.013Z,26.20
2018-07-27T06:23:20.814Z,26.30
2018-07-27T06:25:48.568Z,26.20
2018-07-27T06:28:16.390Z,25.90
2018-07-27T06:30:45.051Z,26.10
2018-07-27T06:33:12.801Z,26.00
2018-07-27T06:35:40.628Z,26.30
2018-07-27T06:38:08.503Z,26.20
2018-07-27T06:40:36.315Z,26.30
2018-07-27T06:43:04.227Z,26.50
2018-07-27T06:45:31.960Z,26.30
2018-07-27T06:47:59.755Z,26.40
2018-07-27T06:50:27.520Z,26.20
2018-07-27T06:52:55.285Z,26.20
2018-07-27T06:55:23.116Z,26.30
2018-07-27T06:57:51.326Z,26.30
2018-07-27T07:00:19.109Z,26.50
2018-07-27T07:02:46.890Z,26.40
2018-07-27T07:05:14.688Z,26.50
2018-07-27T07:07:42.467Z,26.60
2018-07-27T07:10:10.368Z,26.70
2018-07-27T07:12:38.168Z,27.00
2018-07-27T07:15:07.355Z,27.20
2018-07-27T07:17:35.179Z,27.20
2018-07-27T07:20:03.787Z,26.90
2018-07-27T07:22:31.604Z,27.10
2018-07-27T07:24:59.471Z,27.10
2018-07-27T07:27:27.263Z,27.20
2018-07-27T07:29:55.088Z,27.20
2018-07-27T07:32:22.855Z,27.30
2018-07-27T07:34:50.611Z,27.50
2018-07-27T07:37:18.647Z,27.60
2018-07-27T07:39:46.443Z,27.60
2018-07-27T07:42:14.264Z,27.70
2018-07-27T07:44:42.155Z,27.80
2018-07-27T07:49:37.668Z,27.70
2018-07-27T07:52:05.800Z,27.60
2018-07-27T07:54:33.617Z,27.80
2018-07-27T07:57:01.374Z,27.80
2018-07-27T07:59:29.112Z,28.00
2018-07-27T08:01:56.856Z,28.10
2018-07-27T08:04:24.776Z,28.10
2018-07-27T08:09:20.359Z,28.20
2018-07-27T08:11:48.179Z,28.30
2018-07-27T08:14:15.939Z,28.50
2018-07-27T08:16:43.737Z,28.40
2018-07-27T08:19:11.520Z,28.50
2018-07-27T08:21:39.387Z,28.60
2018-07-27T08:24:07.216Z,29.00
2018-07-27T08:26:45.760Z,29.30
2018-07-27T08:29:14.903Z,29.40
2018-07-27T08:31:43.972Z,29.30
2018-07-27T08:34:12.696Z,29.00
2018-07-27T08:36:40.515Z,29.10
2018-07-27T08:39:10.888Z,29.10
2018-07-27T08:41:39.341Z,29.00
2018-07-27T08:44:08.173Z,28.90
2018-07-27T08:46:36.223Z,29.30
2018-07-27T08:49:04.131Z,29.70
2018-07-27T08:51:32.199Z,29.80
2018-07-27T08:56:27.773Z,30.00
2018-07-27T08:58:55.640Z,30.00
2018-07-27T09:01:24.095Z,30.00
2018-07-27T09:03:52.176Z,30.00
2018-07-27T09:08:48.376Z,29.80
2018-07-27T09:11:16.195Z,30.00
2018-07-27T09:13:43.983Z,30.00
2018-07-27T09:16:11.791Z,29.90
2018-07-27T09:18:39.522Z,30.10
2018-07-27T09:21:07.321Z,30.00
2018-07-27T09:23:35.450Z,30.10
2018-07-27T09:26:03.298Z,30.10
2018-07-27T09:28:31.092Z,30.30
2018-07-27T09:30:58.871Z,30.30
2018-07-27T09:33:26.683Z,30.30
2018-07-27T09:35:54.476Z,30.30
2018-07-27T09:38:22.291Z,30.40
2018-07-27T09:40:50.140Z,30.50
2018-07-27T09:43:18.515Z,30.60
2018-07-27T09:45:46.239Z,30.50
2018-07-27T09:48:14.024Z,30.70
2018-07-27T09:50:42.963Z,30.70
2018-07-27T09:53:10.940Z,30.80
2018-07-27T09:55:38.779Z,30.80
2018-07-27T09:58:06.667Z,31.20
2018-07-27T10:00:40.132Z,31.10
2018-07-27T10:03:07.942Z,31.20
2018-07-27T10:08:03.583Z,31.60
2018-07-27T10:10:31.367Z,32.00
2018-07-27T10:12:59.332Z,32.30
2018-07-27T10:15:27.087Z,32.50
2018-07-27T10:17:54.903Z,32.60
2018-07-27T10:20:22.751Z,32.20
2018-07-27T10:22:50.503Z,32.70
2018-07-27T10:25:18.327Z,33.50
2018-07-27T10:27:46.484Z,33.20
2018-07-27T10:30:14.384Z,32.80
2018-07-27T10:32:42.160Z,33.20
2018-07-27T10:35:10.007Z,33.60
2018-07-27T10:37:37.903Z,33.30
2018-07-27T10:40:06.723Z,33.90
2018-07-27T10:42:34.499Z,34.20
2018-07-27T10:47:30.159Z,35.40
2018-07-27T10:49:57.947Z,35.50
2018-07-27T10:52:25.752Z,35.60
2018-07-27T10:54:53.559Z,36.00
2018-07-27T10:59:49.187Z,36.50
2018-07-27T11:02:17.084Z,36.20
2018-07-27T11:04:44.883Z,37.30
2018-07-27T11:07:12.726Z,38.80
2018-07-27T11:09:40.600Z,39.70
2018-07-27T11:12:08.320Z,40.00
2018-07-27T11:14:36.119Z,40.30
2018-07-27T11:17:03.972Z,40.10
2018-07-27T11:19:32.164Z,40.30
2018-07-27T11:22:00.016Z,41.00
2018-07-27T11:24:27.773Z,41.20
2018-07-27T11:26:55.555Z,41.80
2018-07-27T11:29:23.396Z,41.90
2018-07-27T11:31:51.227Z,41.40
2018-07-27T11:34:19.051Z,42.50
2018-07-27T11:36:46.845Z,42.30
2018-07-27T11:39:14.631Z,41.70
2018-07-27T11:41:42.398Z,39.90
2018-07-27T11:44:10.140Z,39.50
2018-07-27T11:46:37.979Z,40.10
2018-07-27T12:00:54.483Z,42.30
2018-07-27T12:03:22.343Z,41.60
2018-07-27T12:05:50.189Z,42.70
2018-07-27T12:08:18.007Z,42.80
2018-07-27T12:10:45.863Z,41.90
2018-07-27T12:13:13.640Z,42.30
2018-07-27T12:18:09.132Z,41.80
2018-07-27T12:20:37.064Z,41.90
2018-07-27T12:23:04.776Z,42.00
2018-07-27T12:25:32.575Z,41.40
2018-07-27T12:28:00.395Z,41.00
2018-07-27T12:30:28.332Z,40.30
2018-07-27T12:32:56.068Z,41.00
2018-07-27T12:35:23.793Z,41.20
2018-07-27T12:37:51.658Z,40.30
2018-07-27T12:40:19.530Z,40.20
2018-07-27T12:42:47.276Z,40.70
2018-07-27T12:45:15.122Z,41.10
2018-07-27T12:47:42.920Z,41.40
2018-07-27T12:50:10.975Z,41.30
2018-07-27T12:55:06.751Z,40.70
2018-07-27T12:57:34.616Z,41.30
2018-07-27T13:02:30.179Z,41.40
2018-07-27T13:04:57.964Z,41.60
2018-07-27T13:07:25.750Z,40.70
2018-07-27T13:09:58.092Z,40.70
2018-07-27T13:12:25.859Z,41.30
2018-07-27T13:14:53.627Z,40.90
2018-07-27T13:17:21.377Z,40.50
2018-07-27T13:19:49.192Z,41.30
2018-07-27T13:22:17.064Z,41.10
2018-07-27T13:27:12.573Z,40.90
2018-07-27T13:29:40.376Z,40.30
2018-07-27T13:34:55.316Z,40.20
2018-07-27T13:37:25.403Z,39.70
2018-07-27T13:42:24.427Z,39.70
2018-07-27T13:44:52.238Z,39.10
2018-07-27T13:47:20.161Z,40.00
2018-07-27T13:49:48.020Z,39.90
2018-07-27T13:52:15.883Z,39.40
2018-07-27T13:54:43.693Z,39.10
2018-07-27T13:57:11.572Z,38.10
2018-07-27T13:59:39.811Z,37.50
2018-07-27T14:02:08.068Z,37.50
2018-07-27T14:04:35.927Z,38.20
2018-07-27T14:07:04.770Z,37.90
2018-07-27T14:09:32.574Z,38.20
2018-07-27T14:14:28.354Z,37.10
2018-07-27T14:16:56.171Z,36.70
2018-07-27T14:19:24.680Z,36.80
2018-07-27T14:21:52.565Z,36.60
2018-07-27T14:24:20.380Z,36.30
2018-07-27T14:26:48.182Z,36.10
2018-07-27T14:29:16.057Z,36.40
2018-07-27T14:31:43.771Z,36.30
2018-07-27T14:34:11.550Z,35.80
2018-07-27T14:36:39.595Z,35.80
2018-07-27T14:41:37.029Z,35.30
2018-07-27T14:44:04.831Z,35.10
2018-07-27T14:46:32.813Z,35.40
2018-07-27T14:49:00.563Z,35.70
2018-07-27T14:51:28.719Z,35.50
2018-07-27T14:53:56.713Z,35.70
2018-07-27T14:56:24.503Z,35.30
2018-07-27T14:58:52.329Z,35.30
2018-07-27T15:01:20.127Z,35.50
2018-07-27T15:03:47.896Z,35.40
2018-07-27T15:06:15.697Z,35.30
2018-07-27T15:08:43.575Z,35.20
2018-07-27T15:11:11.349Z,35.30
2018-07-27T15:13:39.183Z,35.10
2018-07-27T15:18:34.744Z,35.30
2018-07-27T15:21:02.530Z,35.30
2018-07-27T15:23:30.353Z,35.00
2018-07-27T15:25:58.139Z,34.80
2018-07-27T15:28:26.018Z,34.50
2018-07-27T15:30:53.800Z,34.80
2018-07-27T15:33:21.520Z,35.00
2018-07-27T15:35:49.287Z,35.00
2018-07-27T15:38:17.055Z,35.10
2018-07-27T15:40:44.900Z,35.00
2018-07-27T15:43:12.689Z,35.30
2018-07-27T15:45:40.487Z,35.20
2018-07-27T15:48:08.347Z,34.80
2018-07-27T15:50:36.130Z,34.80
2018-07-27T15:53:03.999Z,34.90
2018-07-27T15:55:31.861Z,35.10
2018-07-27T15:58:01.411Z,35.10
2018-07-27T16:00:29.182Z,35.20
2018-07-27T16:02:57.031Z,35.30
2018-07-27T16:07:52.601Z,35.70
2018-07-27T16:10:20.457Z,35.80
2018-07-27T16:12:48.284Z,35.70
2018-07-27T16:15:16.083Z,35.40
2018-07-27T16:17:43.872Z,35.70
2018-07-27T16:20:11.651Z,35.70
2018-07-27T16:22:39.567Z,35.30
2018-07-27T16:25:07.449Z,35.20
2018-07-27T16:27:35.255Z,35.10
2018-07-27T16:30:03.305Z,35.20
2018-07-27T16:32:31.147Z,35.10
2018-07-27T16:34:58.980Z,35.30
2018-07-27T16:37:26.799Z,34.80
2018-07-27T16:39:54.687Z,34.60
2018-07-27T16:42:22.435Z,34.60
2018-07-27T16:44:50.232Z,34.50
2018-07-27T16:47:18.075Z,34.70
2018-07-27T16:49:45.900Z,34.40
2018-07-27T16:52:13.719Z,34.50
2018-07-27T16:54:41.608Z,34.40
2018-07-27T16:59:37.471Z,34.00
2018-07-27T17:02:05.275Z,33.90
2018-07-27T17:04:33.040Z,34.00
2018-07-27T17:07:01.077Z,33.80
2018-07-27T17:09:28.911Z,33.80
2018-07-27T17:11:56.698Z,33.80
2018-07-27T17:14:24.467Z,33.70
2018-07-27T17:16:52.259Z,33.60
2018-07-27T17:21:47.861Z,33.40
2018-07-27T17:24:15.737Z,33.30
2018-07-27T17:26:43.569Z,33.20
2018-07-27T17:29:11.311Z,33.20
2018-07-27T17:31:39.103Z,33.30
2018-07-27T17:34:06.875Z,33.30
2018-07-27T17:36:34.720Z,33.20
2018-07-27T17:39:02.886Z,33.20
2018-07-27T17:41:30.707Z,33.20
2018-07-27T17:43:58.495Z,33.00
2018-07-27T17:46:26.287Z,33.00
2018-07-27T17:48:54.155Z,32.90
2018-07-27T17:51:21.971Z,32.90
2018-07-27T17:53:49.851Z,32.90
2018-07-27T17:56:17.723Z,32.80
2018-07-27T17:58:45.518Z,32.70
2018-07-27T18:01:13.297Z,32.60
2018-07-27T18:03:41.083Z,32.50
2018-07-27T18:06:08.860Z,32.40
2018-07-27T18:08:36.651Z,32.30
2018-07-27T18:11:04.451Z,32.30
2018-07-27T18:13:32.262Z,32.20
2018-07-27T18:18:27.791Z,32.00
2018-07-27T18:20:55.576Z,32.00
2018-07-27T18:23:23.387Z,32.00
2018-07-27T18:25:51.226Z,31.90
2018-07-27T18:28:19.027Z,31.80
2018-07-27T18:30:46.906Z,31.60
2018-07-27T18:33:14.700Z,31.50
2018-07-27T18:35:42.508Z,31.40
2018-07-27T18:38:10.343Z,31.20
2018-07-27T18:40:38.088Z,31.20
2018-07-27T18:43:05.917Z,31.10
2018-07-27T18:45:33.777Z,31.00
2018-07-27T18:48:01.577Z,30.90
2018-07-27T18:50:29.464Z,30.80
2018-07-27T18:52:57.257Z,30.70
2018-07-27T18:55:25.113Z,30.60
2018-07-27T18:57:52.911Z,30.60
2018-07-27T19:00:20.680Z,30.50
2018-07-27T19:02:48.515Z,30.30
2018-07-27T19:05:16.237Z,30.20
2018-07-27T19:07:44.075Z,30.20
2018-07-27T19:10:11.931Z,30.10
2018-07-27T19:12:39.710Z,29.90
2018-07-27T19:15:08.299Z,29.80
2018-07-27T19:17:36.228Z,29.60
2018-07-27T19:20:04.358Z,29.50
2018-07-27T19:22:32.215Z,29.50
2018-07-27T19:25:00.024Z,29.40
2018-07-27T19:27:27.836Z,29.30
2018-07-27T19:29:55.621Z,29.20
2018-07-27T19:32:23.374Z,29.20
2018-07-27T19:34:51.216Z,29.10
2018-07-27T19:37:18.980Z,29.00
2018-07-27T19:39:46.766Z,28.90
2018-07-27T19:44:42.319Z,28.80
2018-07-27T19:49:38.010Z,28.70
2018-07-27T19:52:05.969Z,28.60
2018-07-27T19:54:33.944Z,28.50
2018-07-27T19:57:01.675Z,28.50
2018-07-27T20:01:57.244Z,28.40
2018-07-27T20:04:25.029Z,28.30
2018-07-27T20:06:52.876Z,28.20
2018-07-27T20:09:20.705Z,28.20
2018-07-27T20:11:48.491Z,28.10
2018-07-27T20:14:16.270Z,28.00
2018-07-27T20:16:44.083Z,27.90
2018-07-27T20:19:11.883Z,27.80
2018-07-27T20:21:39.915Z,27.70
2018-07-27T20:24:07.671Z,27.60
2018-07-27T20:26:35.478Z,27.50
2018-07-27T20:29:03.380Z,27.40
2018-07-27T20:31:31.118Z,27.30
2018-07-27T20:33:58.971Z,27.30
2018-07-27T20:36:26.818Z,27.20
2018-07-27T20:38:54.767Z,27.10
2018-07-27T20:41:22.832Z,27.10
2018-07-27T20:43:50.767Z,27.00
2018-07-27T20:48:46.416Z,26.80
2018-07-27T20:51:14.291Z,26.70
2018-07-27T20:53:42.075Z,26.60
2018-07-27T20:56:09.808Z,26.50
2018-07-27T20:58:37.629Z,26.40
2018-07-27T21:01:05.426Z,26.40
2018-07-27T21:03:33.304Z,26.30
2018-07-27T21:06:01.131Z,26.30
2018-07-27T21:08:28.903Z,26.20
2018-07-27T21:10:56.696Z,26.20
2018-07-27T21:13:24.556Z,26.10
2018-07-27T21:15:52.387Z,26.00
2018-07-27T21:18:20.235Z,25.90
2018-07-27T21:20:47.983Z,25.80
2018-07-27T21:23:15.810Z,25.70
2018-07-27T21:25:43.640Z,25.70
2018-07-27T21:28:11.392Z,25.60
2018-07-27T21:30:39.211Z,25.60
2018-07-27T21:33:06.995Z,25.50
2018-07-27T21:35:34.779Z,25.50
2018-07-27T21:38:03.010Z,25.40
2018-07-27T21:40:30.904Z,25.30
2018-07-27T21:42:58.726Z,25.10
2018-07-27T21:45:26.599Z,25.00
2018-07-27T21:47:54.453Z,24.90
2018-07-27T21:50:22.207Z,24.80
2018-07-27T21:52:50.156Z,24.80
2018-07-27T21:55:18.163Z,24.80
2018-07-27T21:57:45.990Z,24.90
2018-07-27T22:00:14.256Z,24.90
2018-07-27T22:02:42.313Z,24.80
2018-07-27T22:05:10.180Z,24.90
2018-07-27T22:07:37.979Z,24.90
2018-07-27T22:10:05.920Z,24.80
2018-07-27T22:12:33.752Z,24.80
2018-07-27T22:15:01.581Z,24.60
2018-07-27T22:17:29.385Z,24.40
2018-07-27T22:19:57.435Z,24.40
2018-07-27T22:22:25.283Z,24.40
2018-07-27T22:24:53.945Z,24.30
2018-07-27T22:27:21.924Z,24.20
2018-07-27T22:29:50.145Z,24.20
2018-07-27T22:32:18.028Z,24.20
2018-07-27T22:34:48.674Z,24.20
2018-07-27T22:37:16.619Z,24.20
2018-07-27T22:39:44.404Z,24.20
2018-07-27T22:42:12.314Z,24.10
2018-07-27T22:44:40.162Z,24.10
2018-07-27T22:47:07.959Z,24.10
2018-07-27T22:49:35.697Z,23.90
2018-07-27T22:52:03.593Z,23.90
2018-07-27T22:54:32.066Z,23.70
2018-07-27T22:57:00.856Z,23.60
2018-07-27T22:59:30.117Z,23.50
2018-07-27T23:01:58.041Z,23.40
2018-07-27T23:04:25.747Z,23.40
2018-07-27T23:06:53.527Z,23.50
2018-07-27T23:09:21.325Z,23.60
2018-07-27T23:11:50.319Z,23.50
2018-07-27T23:14:18.154Z,23.40
2018-07-27T23:16:46.019Z,23.40
2018-07-27T23:19:13.913Z,23.30
2018-07-27T23:21:41.711Z,23.30
2018-07-27T23:24:09.505Z,23.20
2018-07-27T23:26:37.346Z,23.20
2018-07-27T23:29:05.219Z,23.00
2018-07-27T23:31:33.012Z,22.90
2018-07-27T23:34:00.891Z,22.90
2018-07-27T23:36:28.773Z,22.70
2018-07-27T23:38:56.651Z,22.70
2018-07-27T23:41:24.533Z,22.60
2018-07-27T23:43:52.317Z,22.60
2018-07-27T23:46:20.121Z,22.50
2018-07-27T23:48:47.927Z,22.40
2018-07-27T23:51:15.731Z,22.40
2018-07-27T23:53:43.500Z,22.40
2018-07-27T23:56:11.350Z,22.40
2018-07-27T23:58:39.132Z,22.40
